createdAt,value
2019-03-12T00:02:12.990Z,96879.50
2019-03-12T00:04:41.392Z,96879.50
2019-03-12T00:07:09.767Z,96888.55
2019-03-12T00:12:12.193Z,96899.64
2019-03-12T00:17:14.108Z,96894.41
2019-03-12T00:19:42.505Z,96898.33
2019-03-12T00:24:45.295Z,96910.55
2019-03-12T00:27:13.723Z,96906.18
2019-03-12T00:29:42.104Z,96904.50
2019-03-12T00:32:10.511Z,96905.80
2019-03-12T00:34:38.921Z,96901.88
2019-03-12T00:37:07.316Z,96912.14
2019-03-12T00:39:35.706Z,96922.95
2019-03-12T00:44:38.142Z,96919.74
2019-03-12T00:47:06.555Z,96922.36
2019-03-12T00:49:34.960Z,96919.84
2019-03-12T00:52:03.339Z,96916.51
2019-03-12T00:57:06.041Z,96903.29
2019-03-12T00:59:34.484Z,96895.20
2019-03-12T01:02:02.878Z,96898.75
2019-03-12T01:04:31.266Z,96908.05
2019-03-12T01:06:59.683Z,96915.04
2019-03-12T01:09:28.078Z,96908.15
2019-03-12T01:11:56.474Z,96912.91
2019-03-12T01:14:24.898Z,96912.28
2019-03-12T01:17:12.488Z,96913.45
2019-03-12T01:22:14.798Z,96923.20
2019-03-12T01:27:17.292Z,96936.28
2019-03-12T01:29:45.686Z,96935.55
2019-03-12T01:34:47.700Z,96935.45
2019-03-12T01:37:16.150Z,96935.70
2019-03-12T01:39:44.554Z,96933.45
2019-03-12T01:42:12.960Z,96943.06
2019-03-12T01:47:15.755Z,96941.65
2019-03-12T01:49:44.167Z,96942.38
2019-03-12T01:52:12.561Z,96949.50
2019-03-12T01:54:40.955Z,96965.44
2019-03-12T01:57:09.387Z,96953.08
2019-03-12T01:59:37.778Z,96961.75
2019-03-12T02:02:25.483Z,96971.26
2019-03-12T02:04:53.866Z,96962.48
2019-03-12T02:07:22.272Z,96971.26
2019-03-12T02:12:24.402Z,96974.15
2019-03-12T02:14:52.790Z,96975.18
2019-03-12T02:17:21.236Z,96982.20
2019-03-12T02:19:49.622Z,96988.84
2019-03-12T02:22:18.014Z,96988.98
2019-03-12T02:27:39.719Z,96999.66
2019-03-12T02:30:27.470Z,96993.59
2019-03-12T02:33:15.056Z,97000.71
2019-03-12T02:35:43.462Z,97009.01
2019-03-12T02:38:11.851Z,97018.65
2019-03-12T02:40:40.242Z,97007.08
2019-03-12T02:43:08.722Z,97008.04
2019-03-12T02:45:37.084Z,97015.30
2019-03-12T02:48:24.754Z,97028.28
2019-03-12T02:50:53.220Z,97029.31
2019-03-12T02:53:21.606Z,97030.52
2019-03-12T02:55:50.086Z,97043.16
2019-03-12T02:58:18.439Z,97047.91
2019-03-12T03:00:46.905Z,97053.14
2019-03-12T03:03:15.398Z,97062.06
2019-03-12T03:11:08.141Z,97079.06
2019-03-12T03:14:16.474Z,97077.17
2019-03-12T03:19:18.698Z,97090.64
2019-03-12T03:21:47.131Z,97089.71
2019-03-12T03:24:15.532Z,97102.80
2019-03-12T03:26:43.915Z,97103.52
2019-03-12T03:31:46.888Z,97116.95
2019-03-12T03:34:15.345Z,97107.89
2019-03-12T03:36:43.723Z,97105.76
2019-03-12T03:42:06.765Z,97113.03
2019-03-12T03:44:35.156Z,97116.86
2019-03-12T03:47:03.550Z,97118.06
2019-03-12T03:52:05.799Z,97132.22
2019-03-12T03:54:53.430Z,97128.58
2019-03-12T03:57:21.821Z,97132.12
2019-03-12T03:59:50.281Z,97134.74
2019-03-12T04:02:18.709Z,97135.13
2019-03-12T04:04:47.100Z,97131.88
2019-03-12T04:07:15.486Z,97135.32
2019-03-12T04:09:43.914Z,97128.39
2019-03-12T04:12:31.549Z,97137.21
2019-03-12T04:14:59.975Z,97128.88
2019-03-12T04:17:47.565Z,97138.42
2019-03-12T04:20:55.995Z,97143.75
2019-03-12T04:23:24.388Z,97137.30
2019-03-12T04:25:52.795Z,97135.17
2019-03-12T04:28:21.211Z,97136.58
2019-03-12T04:30:49.599Z,97137.16
2019-03-12T04:33:56.607Z,97142.04
2019-03-12T04:36:24.997Z,97148.58
2019-03-12T04:38:53.390Z,97152.38
2019-03-12T04:41:21.829Z,97154.55
2019-03-12T04:43:50.229Z,97160.61
2019-03-12T04:46:18.617Z,97156.20
2019-03-12T04:51:21.370Z,97154.89
2019-03-12T04:53:49.780Z,97160.95
2019-03-12T04:56:18.173Z,97156.93
2019-03-12T04:58:46.562Z,97171.91
2019-03-12T05:03:49.363Z,97165.16
2019-03-12T05:06:29.815Z,97161.69
2019-03-12T05:11:21.429Z,97173.20
2019-03-12T05:14:28.763Z,97169.86
2019-03-12T05:17:37.084Z,97173.31
2019-03-12T05:20:45.523Z,97172.23
2019-03-12T05:23:13.906Z,97180.33
2019-03-12T05:25:42.301Z,97176.05
2019-03-12T05:28:10.762Z,97183.91
2019-03-12T05:30:39.155Z,97184.16
2019-03-12T05:33:07.560Z,97178.67
2019-03-12T05:38:29.217Z,97190.44
2019-03-12T05:40:57.630Z,97192.93
2019-03-12T05:43:26.065Z,97196.41
2019-03-12T05:45:54.450Z,97184.73
2019-03-12T05:48:22.875Z,97199.60
2019-03-12T05:50:51.270Z,97203.05
2019-03-12T05:53:19.663Z,97202.22
2019-03-12T05:55:48.082Z,97208.28
2019-03-12T05:58:16.475Z,97213.98
2019-03-12T06:00:44.866Z,97213.52
2019-03-12T06:03:13.339Z,97211.15
2019-03-12T06:05:41.702Z,97215.80
2019-03-12T06:08:10.103Z,97217.50
2019-03-12T06:10:38.544Z,97213.00
2019-03-12T06:13:06.941Z,97216.44
2019-03-12T06:15:35.352Z,97221.58
2019-03-12T06:18:23.028Z,97224.67
2019-03-12T06:20:51.428Z,97223.81
2019-03-12T06:23:19.819Z,97220.84
2019-03-12T06:28:22.074Z,97225.02
2019-03-12T06:31:09.631Z,97223.23
2019-03-12T06:33:57.156Z,97218.73
2019-03-12T06:36:44.686Z,97221.73
2019-03-12T06:39:32.219Z,97223.52
2019-03-12T06:44:58.647Z,97225.81
2019-03-12T06:47:46.600Z,97231.78
2019-03-12T06:50:35.506Z,97227.86
2019-03-12T06:53:23.030Z,97232.77
2019-03-12T06:58:49.325Z,97238.19
2019-03-12T07:01:36.809Z,97245.91
2019-03-12T07:04:24.364Z,97235.82
2019-03-12T07:07:12.853Z,97238.59
2019-03-12T07:10:01.492Z,97241.94
2019-03-12T07:12:49.008Z,97240.63
2019-03-12T07:15:36.630Z,97238.49
2019-03-12T07:18:44.945Z,97240.28
2019-03-12T07:24:08.094Z,97239.57
2019-03-12T07:26:55.604Z,97240.94
2019-03-12T07:29:43.170Z,97243.11
2019-03-12T07:32:30.689Z,97239.75
2019-03-12T07:35:18.240Z,97234.19
2019-03-12T07:38:05.766Z,97233.70
2019-03-12T07:46:07.486Z,97232.35
2019-03-12T07:48:55.010Z,97225.38
2019-03-12T07:51:42.883Z,97222.12
2019-03-12T07:54:30.417Z,97219.16
2019-03-12T07:57:17.979Z,97217.88
2019-03-12T08:00:24.826Z,97215.47
2019-03-12T08:05:51.374Z,97209.74
2019-03-12T08:08:38.890Z,97212.91
2019-03-12T08:11:26.760Z,97221.73
2019-03-12T08:14:14.286Z,97216.28
2019-03-12T08:22:16.153Z,97209.52
2019-03-12T08:25:03.673Z,97200.98
2019-03-12T08:27:51.453Z,97189.31
2019-03-12T08:33:50.902Z,97180.52
2019-03-12T08:36:36.573Z,97171.66
2019-03-12T08:39:44.943Z,97177.61
2019-03-12T08:42:32.463Z,97176.88
2019-03-12T08:45:20.015Z,97175.70
2019-03-12T08:53:35.234Z,97161.94
2019-03-12T08:59:30.829Z,97150.48
2019-03-12T09:02:18.349Z,97144.39
2019-03-12T09:05:05.888Z,97141.63
2019-03-12T09:07:53.406Z,97142.20
2019-03-12T09:13:19.983Z,97140.66
2019-03-12T09:16:07.510Z,97140.90
2019-03-12T09:18:55.051Z,97125.99
2019-03-12T09:21:42.602Z,97135.89
2019-03-12T09:27:05.673Z,97111.34
2019-03-12T09:32:42.371Z,97103.22
2019-03-12T09:35:29.887Z,97107.81
2019-03-12T09:38:17.427Z,97102.16
2019-03-12T09:43:54.119Z,97102.40
2019-03-12T09:46:41.636Z,97101.73
2019-03-12T09:52:04.726Z,97087.61
2019-03-12T09:54:52.249Z,97079.58
2019-03-12T10:00:16.711Z,97071.02
2019-03-12T10:03:04.455Z,97074.17
2019-03-12T10:05:52.100Z,97070.52
2019-03-12T10:08:39.639Z,97061.50
2019-03-12T10:11:27.145Z,97049.44
2019-03-12T10:14:14.669Z,97058.31
2019-03-12T10:17:02.212Z,97050.03
2019-03-12T10:19:49.734Z,97046.55
2019-03-12T10:27:55.353Z,97039.00
2019-03-12T10:33:31.969Z,97040.45
2019-03-12T10:36:19.649Z,97030.39
2019-03-12T10:39:45.874Z,97031.75
2019-03-12T10:42:33.403Z,97022.92
2019-03-12T10:45:21.049Z,97010.55
2019-03-12T10:53:12.997Z,96990.08
2019-03-12T10:56:00.687Z,96974.47
2019-03-12T10:58:29.088Z,96970.84
2019-03-12T11:01:16.700Z,96965.20
2019-03-12T11:03:45.091Z,96955.88
2019-03-12T11:06:13.489Z,96953.38
2019-03-12T11:11:15.526Z,96951.22
2019-03-12T11:14:03.193Z,96946.66
2019-03-12T11:16:31.658Z,96946.25
2019-03-12T11:19:00.054Z,96936.44
2019-03-12T11:21:28.568Z,96928.19
2019-03-12T11:23:56.949Z,96928.00
2019-03-12T11:26:25.348Z,96930.26
2019-03-12T11:28:53.792Z,96927.00
2019-03-12T11:31:22.171Z,96910.71
2019-03-12T11:34:02.830Z,96907.20
2019-03-12T11:36:31.455Z,96907.22
2019-03-12T11:39:01.392Z,96900.63
2019-03-12T11:42:09.785Z,96898.80
2019-03-12T11:44:38.180Z,96890.32
2019-03-12T11:47:06.589Z,96886.03
2019-03-12T11:49:35.037Z,96881.00
2019-03-12T11:52:22.762Z,96876.36
2019-03-12T11:54:51.259Z,96859.59
2019-03-12T11:57:19.688Z,96845.66
2019-03-12T11:59:48.088Z,96842.80
2019-03-12T12:02:16.508Z,96828.30
2019-03-12T12:04:44.908Z,96820.41
2019-03-12T12:07:13.307Z,96813.17
2019-03-12T12:10:01.756Z,96799.31
2019-03-12T12:12:50.501Z,96797.03
2019-03-12T12:18:33.378Z,96783.52
2019-03-12T12:21:01.776Z,96774.42
2019-03-12T12:23:30.170Z,96770.97
2019-03-12T12:25:58.631Z,96766.34
2019-03-12T12:28:27.025Z,96764.06
2019-03-12T12:30:55.430Z,96754.30
2019-03-12T12:35:58.456Z,96749.05
2019-03-12T12:38:26.882Z,96739.94
2019-03-12T12:40:55.309Z,96731.33
2019-03-12T12:43:23.701Z,96720.26
2019-03-12T12:48:26.067Z,96715.30
2019-03-12T12:51:02.929Z,96707.99
2019-03-12T12:53:24.598Z,96699.20
2019-03-12T12:55:53.068Z,96696.39
2019-03-12T13:00:55.363Z,96689.61
2019-03-12T13:03:23.752Z,96684.47
2019-03-12T13:05:55.284Z,96674.98
2019-03-12T13:08:22.297Z,96671.00
2019-03-12T13:10:50.718Z,96667.16
2019-03-12T13:13:19.114Z,96661.67
2019-03-12T13:15:47.507Z,96655.05
2019-03-12T13:18:35.141Z,96650.06
2019-03-12T13:21:03.641Z,96645.72
2019-03-12T13:23:32.034Z,96642.56
2019-03-12T13:28:34.190Z,96627.80
2019-03-12T13:31:02.593Z,96620.47
2019-03-12T13:33:31.033Z,96619.80
2019-03-12T13:35:59.422Z,96623.42
2019-03-12T13:38:27.858Z,96615.07
2019-03-12T13:46:24.129Z,96609.92
2019-03-12T13:48:52.552Z,96592.39
2019-03-12T13:51:40.195Z,96588.27
2019-03-12T13:54:09.855Z,96589.59
2019-03-12T13:56:58.064Z,96568.02
2019-03-12T13:59:27.712Z,96562.04
2019-03-12T14:01:56.718Z,96560.62
2019-03-12T14:04:44.529Z,96545.00
2019-03-12T14:07:12.934Z,96549.16
2019-03-12T14:09:41.334Z,96535.09
2019-03-12T14:15:44.356Z,96517.19
2019-03-12T14:18:12.847Z,96515.36
2019-03-12T14:21:21.209Z,96515.66
2019-03-12T14:24:29.538Z,96510.90
2019-03-12T14:26:57.958Z,96502.16
2019-03-12T14:29:26.346Z,96491.77
2019-03-12T14:32:21.752Z,96480.81
2019-03-12T14:34:50.227Z,96475.85
2019-03-12T14:37:38.186Z,96477.66
2019-03-12T14:40:46.504Z,96464.11
2019-03-12T14:43:14.929Z,96459.77
2019-03-12T14:46:02.745Z,96450.95
2019-03-12T14:52:05.573Z,96441.80
2019-03-12T14:57:28.657Z,96421.91
2019-03-12T14:59:57.053Z,96411.53
2019-03-12T15:05:39.828Z,96408.70
2019-03-12T15:08:48.158Z,96401.13
2019-03-12T15:11:16.681Z,96392.31
2019-03-12T15:14:04.420Z,96392.38
2019-03-12T15:19:06.404Z,96381.19
2019-03-12T15:21:54.037Z,96378.03
2019-03-12T15:24:22.436Z,96371.58
2019-03-12T15:27:30.847Z,96365.48
2019-03-12T15:29:59.236Z,96364.36
2019-03-12T15:32:27.661Z,96355.28
2019-03-12T15:34:56.108Z,96348.99
2019-03-12T15:37:24.547Z,96338.25
2019-03-12T15:40:05.259Z,96329.66
2019-03-12T15:42:33.662Z,96329.83
2019-03-12T15:45:02.067Z,96326.02
2019-03-12T15:50:44.370Z,96320.81
2019-03-12T15:53:12.774Z,96307.28
2019-03-12T15:56:00.301Z,96308.01
2019-03-12T15:58:28.725Z,96295.97
2019-03-12T16:00:57.197Z,96302.35
2019-03-12T16:03:25.618Z,96293.62
2019-03-12T16:06:13.282Z,96292.17
2019-03-12T16:08:41.685Z,96281.98
2019-03-12T16:11:10.083Z,96278.02
2019-03-12T16:16:12.780Z,96273.30
2019-03-12T16:18:41.204Z,96270.32
2019-03-12T16:24:37.022Z,96262.56
2019-03-12T16:27:05.435Z,96255.47
2019-03-12T16:29:33.832Z,96247.22
2019-03-12T16:34:36.361Z,96240.47
2019-03-12T16:37:04.772Z,96233.53
2019-03-12T16:39:33.267Z,96229.58
2019-03-12T16:42:01.660Z,96223.81
2019-03-12T16:44:30.068Z,96225.62
2019-03-12T16:47:17.750Z,96212.58
2019-03-12T16:49:46.140Z,96209.30
2019-03-12T16:52:14.551Z,96201.03
2019-03-12T16:54:42.970Z,96198.40
2019-03-12T16:57:11.375Z,96193.62
2019-03-12T16:59:39.774Z,96184.04
2019-03-12T17:05:03.805Z,96175.12
2019-03-12T17:07:50.988Z,96174.45
2019-03-12T17:11:02.774Z,96166.54
2019-03-12T17:13:29.560Z,96169.65
2019-03-12T17:16:19.912Z,96150.52
2019-03-12T17:21:24.035Z,96148.19
2019-03-12T17:24:11.899Z,96145.04
2019-03-12T17:26:59.505Z,96139.75
2019-03-12T17:29:28.277Z,96132.66
2019-03-12T17:31:56.871Z,96129.86
2019-03-12T17:34:35.388Z,96123.58
2019-03-12T17:36:55.887Z,96122.44
2019-03-12T17:39:24.481Z,96128.37
2019-03-12T17:44:46.901Z,96112.36
2019-03-12T17:49:49.882Z,96106.11
2019-03-12T17:52:58.566Z,96098.35
2019-03-12T17:55:26.966Z,96084.36
2019-03-12T17:57:55.478Z,96091.72
2019-03-12T18:01:03.904Z,96078.70
2019-03-12T18:08:53.555Z,96063.53
2019-03-12T18:11:21.981Z,96061.70
2019-03-12T18:13:50.440Z,96050.50
2019-03-12T18:19:26.411Z,96045.23
2019-03-12T18:21:54.790Z,96043.41
2019-03-12T18:24:23.187Z,96048.83
2019-03-12T18:26:51.579Z,96035.14
2019-03-12T18:31:53.943Z,96034.16
2019-03-12T18:36:55.946Z,96037.77
2019-03-12T18:41:58.250Z,96028.39
2019-03-12T18:44:26.681Z,96024.94
2019-03-12T18:46:55.076Z,96021.45
2019-03-12T18:49:23.478Z,96011.42
2019-03-12T18:51:51.902Z,96010.25
2019-03-12T18:54:20.293Z,96004.98
2019-03-12T18:56:48.689Z,95998.40
2019-03-12T19:02:10.189Z,95986.55
2019-03-12T19:04:38.622Z,95983.09
2019-03-12T19:07:07.021Z,95969.57
2019-03-12T19:09:35.421Z,95976.16
2019-03-12T19:14:56.901Z,95962.17
2019-03-12T19:17:25.330Z,95965.16
2019-03-12T19:19:53.801Z,95947.17
2019-03-12T19:22:22.183Z,95946.70
2019-03-12T19:27:24.178Z,95933.03
2019-03-12T19:30:32.583Z,95924.28
2019-03-12T19:39:08.569Z,95898.59
2019-03-12T19:41:36.966Z,95892.36
2019-03-12T19:44:05.363Z,95887.25
2019-03-12T19:46:52.936Z,95889.53
2019-03-12T19:49:21.390Z,95886.59
2019-03-12T19:55:02.881Z,95887.25
2019-03-12T19:57:50.595Z,95861.41
2019-03-12T20:03:12.014Z,95850.69
2019-03-12T20:05:38.644Z,95854.83
2019-03-12T20:08:26.460Z,95855.64
2019-03-12T20:11:33.451Z,95845.11
2019-03-12T20:14:40.481Z,95832.09
2019-03-12T20:17:48.877Z,95819.43
2019-03-12T20:20:55.908Z,95822.88
2019-03-12T20:24:04.252Z,95809.37
2019-03-12T20:27:11.351Z,95818.24
2019-03-12T20:30:18.339Z,95798.69
2019-03-12T20:33:26.849Z,95800.31
2019-03-12T20:36:35.223Z,95790.95
2019-03-12T20:39:42.325Z,95778.44
2019-03-12T20:42:49.305Z,95779.76
2019-03-12T20:45:56.553Z,95778.09
2019-03-12T20:49:11.037Z,95780.41
2019-03-12T20:52:13.830Z,95766.09
2019-03-12T20:55:20.825Z,95761.66
2019-03-12T20:58:27.923Z,95757.05
2019-03-12T21:01:36.299Z,95748.31
2019-03-12T21:04:44.651Z,95733.17
2019-03-12T21:07:52.976Z,95719.70
2019-03-12T21:11:00.312Z,95732.87
2019-03-12T21:14:07.295Z,95717.73
2019-03-12T21:17:15.786Z,95728.08
2019-03-12T21:23:18.330Z,95713.95
2019-03-12T21:26:25.465Z,95705.56
2019-03-12T21:29:32.613Z,95688.62
2019-03-12T21:35:28.428Z,95674.31
2019-03-12T21:37:56.823Z,95671.52
2019-03-12T21:40:44.574Z,95674.47
2019-03-12T21:43:12.964Z,95674.63
2019-03-12T21:46:00.722Z,95664.44
2019-03-12T21:48:29.114Z,95667.07
2019-03-12T21:50:57.510Z,95669.86
2019-03-12T21:55:59.912Z,95652.25
2019-03-12T22:01:01.921Z,95636.30
2019-03-12T22:03:30.338Z,95627.58
2019-03-12T22:05:58.730Z,95624.29
2019-03-12T22:08:27.119Z,95615.56
2019-03-12T22:11:14.927Z,95618.69
2019-03-12T22:13:43.330Z,95600.25
2019-03-12T22:16:31.052Z,95597.11
2019-03-12T22:18:59.489Z,95581.33
2019-03-12T22:22:06.361Z,95574.73
2019-03-12T22:24:34.760Z,95579.33
2019-03-12T22:27:03.215Z,95562.52
2019-03-12T22:29:31.622Z,95584.43
2019-03-12T22:32:00.016Z,95575.86
2019-03-12T22:34:47.633Z,95575.36
2019-03-12T22:37:16.017Z,95574.55
2019-03-12T22:39:44.415Z,95555.77
2019-03-12T22:44:46.722Z,95549.84
2019-03-12T22:49:49.587Z,95566.63
2019-03-12T22:52:17.999Z,95572.20
2019-03-12T22:54:46.383Z,95595.26
2019-03-12T22:57:14.772Z,95585.23
2019-03-12T23:02:36.165Z,95550.16
2019-03-12T23:05:44.514Z,95523.83
2019-03-12T23:11:21.042Z,95514.23
2019-03-12T23:14:08.761Z,95511.94
2019-03-12T23:16:37.228Z,95496.97
2019-03-12T23:19:05.615Z,95486.30
2019-03-12T23:22:14.256Z,95494.50
2019-03-12T23:25:02.002Z,95492.88
2019-03-12T23:30:44.111Z,95482.70
2019-03-12T23:35:45.991Z,95480.80
2019-03-12T23:38:14.376Z,95484.58
2019-03-12T23:41:02.184Z,95473.40
2019-03-12T23:43:30.576Z,95466.68
2019-03-12T23:46:18.355Z,95475.91
2019-03-12T23:51:34.309Z,95441.55
2019-03-12T23:54:02.695Z,95442.73
2019-03-12T23:56:31.098Z,95463.45
2019-03-12T23:59:18.797Z,95442.91
